Flight Track Log - Related Links

Times and Time Zones

All times are in EDT time to prevent confusion due to time zone crossing. See the N717AN flight status page for this flight to view local times or setup timezone preferences in your user account.

Time Position Orientation Groundspeed Altitude Reporting Facility
EDT Latitude Longitude Course Direction KTS MPH feet Rate Location/Type
Tue 05:54:11 AM 51.4655 -0.5172 272° West 172 198 1,700  Level FlightAware ADS-B
Tue 05:54:27 AM 51.4659 -0.5371 272° West 171 197 2,300 2,069 Climbing FlightAware ADS-B
Tue 05:54:40 AM 51.4662 -0.5543 272° West 172 198 2,700 1,826 Climbing FlightAware ADS-B
Tue 05:54:50 AM 51.4664 -0.5671 271° West 175 201 3,000 1,826 Climbing FlightAware ADS-B
Tue 05:55:03 AM 51.4663 -0.5842 269° West 180 207 3,400 1,680 Climbing FlightAware ADS-B
Tue 05:55:15 AM 51.4663 -0.6002 270° West 186 214 3,700 1,412 Climbing FlightAware ADS-B
Tue 05:55:20 AM 51.4661 -0.6069 267° West 190 219 3,800 1,385 Climbing FlightAware ADS-B
Tue 05:55:28 AM 51.4650 -0.6186 261° West 203 234 4,000 1,125 Climbing FlightAware ADS-B
Tue 05:55:36 AM 51.4632 -0.6314 257° West 215 247 4,100 1,304 Climbing FlightAware ADS-B
Tue 05:55:51 AM 51.4588 -0.6558 254° West 230 265 4,500 1,429 Climbing FlightAware ADS-B
Tue 05:55:57 AM 51.4570 -0.6658 254° West 237 273 4,600 1,200 Climbing FlightAware ADS-B
Tue 05:56:01 AM 51.4561 -0.6723 258° West 239 275 4,700 1,333 Climbing FlightAware ADS-B
Tue 05:56:06 AM 51.4554 -0.6802 262° West 241 277 4,800 1,500 Climbing FlightAware ADS-B
Tue 05:56:09 AM 51.4550 -0.6857 263° West 242 278 4,900 2,143 Climbing FlightAware ADS-B
Tue 05:56:20 AM 51.4543 -0.7059 267° West 245 282 5,300 1,778 Climbing FlightAware ADS-B
Tue 05:56:36 AM 51.4540 -0.7362 269° West 252 290 5,700 2,063 Climbing FlightAware ADS-B
Tue 05:56:52 AM 51.4539 -0.7660 270° West 253 291 6,400 2,516 Climbing FlightAware ADS-B
Tue 05:57:07 AM 51.4537 -0.7947 269° West 259 298 7,000 1,548 Climbing FlightAware ADS-B
Tue 05:57:23 AM 51.4534 -0.8268 269° West 279 321 7,200 828 Climbing FlightAware ADS-B
Tue 05:57:36 AM 51.4531 -0.8537 269° West 295 339 7,400 1,000 Climbing FlightAware ADS-B
Tue 05:57:41 AM 51.4532 -0.8654 271° West 300 345 7,500 1,000 Climbing FlightAware ADS-B
Tue 05:57:48 AM 51.4538 -0.8814 273° West 307 353 7,600 1,286 Climbing FlightAware ADS-B
Tue 05:57:55 AM 51.4551 -0.8966 278° West 311 358 7,800 1,714 Climbing FlightAware ADS-B
Tue 05:58:02 AM 51.4570 -0.9115 282° West 313 360 8,000 1,846 Climbing FlightAware ADS-B
Tue 05:58:08 AM 51.4594 -0.9264 285° West 315 362 8,200 2,211 Climbing FlightAware ADS-B
Tue 05:58:21 AM 51.4646 -0.9557 286° West 318 366 8,700 2,364 Climbing FlightAware ADS-B
Tue 05:58:41 AM 51.4735 -1.0009 288° West 324 373 9,500 -167 Climbing FlightAware ADS-B
Tue 05:58:57 AM 51.4810 -1.0367 288° West 348 400 8,600 2,000 Descending FlightAware UK
Tue 05:59:11 AM 51.4883 -1.0703 288° West 334 384 10,500 4,098 Climbing FlightAware ADS-B
Tue 05:59:38 AM 51.5010 -1.1360 287° West 353 406 11,400 2,632 Climbing FlightAware ADS-B
Tue 06:00:08 AM 51.5158 -1.2132 287° West 362 417 13,000 875 Climbing FlightAware ADS-B
Tue 06:00:26 AM 51.5247 -1.2590 287° West 392 451 12,100 2,323 Descending FlightAware UK
Tue 06:00:39 AM 51.5313 -1.2912 287° West 369 425 14,200 2,200 Climbing FlightAware ADS-B
Tue 06:00:56 AM 51.5405 -1.3375 287° West 400 460 13,200 1,600 Descending FlightAware UK
Tue 06:01:09 AM 51.5473 -1.3705 287° West 372 428 15,000 3,349 Climbing FlightAware ADS-B
Tue 06:01:39 AM 51.5629 -1.4504 287° West 377 434 15,600 340 Climbing FlightAware ADS-B
Tue 06:02:02 AM 51.5749 -1.5120 287° West 412 474 15,300 3,188 Descending FlightAware UK
Tue 06:02:11 AM 51.5800 -1.5366 287° West 379 436 17,300 2,750 Climbing FlightAware ADS-B
Tue 06:02:26 AM 51.5882 -1.5761 287° West 418 481 16,400 2,710 Descending FlightAware UK
Tue 06:02:42 AM 51.5993 -1.6177 287° West 386 444 18,700 2,667 Climbing FlightAware ADS-B
Tue 06:03:02 AM 51.6128 -1.6720 287° West 432 497 18,000 2,438 Descending FlightAware UK
Tue 06:03:14 AM 51.6208 -1.7043 287° West 394 453 20,000 5,091 Climbing FlightAware ADS-B
Tue 06:03:35 AM 51.6346 -1.7606 292° West 400 460 20,800 2,353 Climbing FlightAware ADS-B
Tue 06:04:05 AM 51.6549 -1.8458 291° West 408 470 22,000 2,300 Climbing FlightAware ADS-B
Tue 06:04:35 AM 51.6752 -1.9323 291° West 415 478 23,100 133 Climbing FlightAware ADS-B
Tue 06:04:50 AM 51.6850 -1.9751 291° West 456 525 22,100 2,250 Descending FlightAware UK
Tue 06:05:07 AM 51.6965 -2.0233 291° West 420 483 24,300 2,500 Climbing FlightAware ADS-B
Tue 06:05:26 AM 51.7097 -2.0798 291° West 468 539 23,600 2,526 Descending FlightAware UK
Tue 06:05:45 AM 51.7226 -2.1351 291° West 421 484 25,900 2,167 Climbing FlightAware ADS-B
Tue 06:06:02 AM 51.7344 -2.1852 291° West 474 545 24,900 2,000 Descending FlightAware UK
Tue 06:06:15 AM 51.7437 -2.2252 291° West 426 490 26,900 2,000 Climbing FlightAware ADS-B
Tue 06:06:32 AM 51.7549 -2.2739 291° West 480 552 25,900 1,875 Descending FlightAware UK
Tue 06:06:47 AM 51.7656 -2.3192 291° West 433 498 27,900 1,800 Climbing FlightAware ADS-B
Tue 06:07:02 AM 51.7760 -2.3649 291° West 488 562 26,800 2,063 Descending FlightAware UK
Tue 06:07:19 AM 51.7879 -2.4164 291° West 431 496 29,000 4,000 Climbing FlightAware ADS-B
Tue 06:07:47 AM 51.8072 -2.5011 290° West 437 503 29,800 1,846 Climbing FlightAware ADS-B
Tue 06:07:58 AM 51.8139 -2.5345 288° West 437 503 30,200 2,500 Climbing FlightAware ADS-B
Tue 06:08:11 AM 51.8214 -2.5775 286° West 433 498 30,800 2,432 Climbing FlightAware ADS-B
Tue 06:08:35 AM 51.8322 -2.6511 283° West 429 494 31,700 1,886 Climbing FlightAware ADS-B
Tue 06:08:46 AM 51.8356 -2.6858 279° West 430 495 31,900 409 Climbing FlightAware ADS-B
Tue 06:09:19 AM 51.8371 -2.7908 271° West 432 497 32,000 -1,647 Climbing FlightAware ADS-B
Tue 06:09:37 AM 51.8370 -2.8512 271° West 488 562 30,500  Descending FlightAware UK
Tue 06:09:49 AM 51.8373 -2.8870 271° West 428 493 32,000  Climbing FlightAware ADS-B
Tue 06:10:07 AM 51.8374 -2.9469 271° West 488 562 30,500  Descending FlightAware UK
Tue 06:10:20 AM 51.8378 -2.9876 271° West 427 491 32,000  Climbing FlightAware ADS-B
Tue 06:10:43 AM 51.8383 -3.0614 271° West 486 559 30,500 -2,195 Descending FlightAware UK
Tue 06:11:01 AM 51.8388 -3.1179 271° West 488 562 30,500 2,308 Level FlightAware UK
Tue 06:11:22 AM 51.8390 -3.1780 271° West 430 495 32,000  Climbing FlightAware ADS-B
Tue 06:11:37 AM 51.8395 -3.2326 271° West 492 566 30,500 -2,727 Descending FlightAware UK
Tue 06:11:55 AM 51.8400 -3.2906 271° West 496 571 30,500 3,000 Level FlightAware UK
Tue 06:12:07 AM 51.8410 -3.3220 271° West 435 501 32,000 1,731 Climbing FlightAware ADS-B
Tue 06:12:47 AM 51.8470 -3.4420 275° West 435 501 32,000 -1,500 Level FlightAware ADS-B
Tue 06:13:07 AM 51.8516 -3.5238 275° West 498 573 30,500  Descending FlightAware UK
Tue 06:13:27 AM 51.8540 -3.5790 275° West 437 503 32,000  Climbing FlightAware ADS-B
Tue 06:13:43 AM 51.8576 -3.6400 275° West 498 573 30,500  Descending FlightAware UK
Tue 06:14:12 AM 51.8640 -3.7300 275° West 438 504 32,000  Climbing FlightAware ADS-B
Tue 06:14:43 AM 51.8703 -3.8350 275° West 498 573 30,500  Descending FlightAware UK
Tue 06:14:47 AM 51.8700 -3.8420 275° West 438 504 32,000  Climbing FlightAware ADS-B
Tue 06:15:25 AM 51.8712 -3.9726 275° West 500 575 30,500  Descending FlightAware UK
Tue 06:15:47 AM 51.8710 -4.0300 275° West 440 506 32,000  Climbing FlightAware ADS-B
Tue 06:16:07 AM 51.8717 -4.1106 275° West 500 575 30,500 -2,368 Descending FlightAware UK
Tue 06:16:25 AM 51.8720 -4.1696 270° West 500 575 30,500 3,600 Level FlightAware UK
Tue 06:16:32 AM 51.8720 -4.1770 270° West 440 506 32,000  Climbing FlightAware ADS-B
Tue 06:16:48 AM 51.8724 -4.2476 270° West 500 575 30,500  Descending FlightAware UK
Tue 06:17:12 AM 51.8740 -4.3060 270° West 439 505 32,000  Climbing FlightAware ADS-B
Tue 06:17:36 AM 51.8801 -4.4043 270° West 498 573 30,500  Descending FlightAware UK
Tue 06:17:47 AM 51.8810 -4.4170 270° West 439 505 32,000  Climbing FlightAware ADS-B
Tue 06:18:06 AM 51.8858 -4.5026 270° West 500 575 30,500 -2,432 Descending FlightAware UK
Tue 06:18:24 AM 51.8887 -4.5614 275° West 500 575 30,500 2,903 Level FlightAware UK
Tue 06:18:37 AM 51.8900 -4.5890 275° West 440 506 32,000  Climbing FlightAware ADS-B
Tue 06:19:00 AM 51.8944 -4.6793 275° West 500 575 30,500  Descending FlightAware UK
Tue 06:19:17 AM 51.8960 -4.7200 275° West 439 505 32,000  Climbing FlightAware ADS-B
Tue 06:19:36 AM 51.9000 -4.7970 275° West 500 575 30,500 -2,432 Descending FlightAware UK
Tue 06:19:54 AM 51.9026 -4.8558 274° West 500 575 30,500 4,286 Level FlightAware UK
Tue 06:19:57 AM 51.9020 -4.8430 274° West 438 504 32,000  Climbing FlightAware ADS-B
Tue 06:20:12 AM 51.9053 -4.9144 274° West 500 575 30,500 -2,308 Descending FlightAware UK
Tue 06:20:36 AM 51.9093 -4.9919 275° West 500 575 30,500 3,000 Level FlightAware UK
Tue 06:20:42 AM 51.9100 -4.9990 275° West 437 503 32,000  Climbing FlightAware ADS-B
Tue 06:21:00 AM 51.9136 -5.0706 275° West 500 575 30,500  Descending FlightAware UK
Tue 06:21:22 AM 51.9170 -5.1320 275° West 437 503 32,000  Climbing FlightAware ADS-B
Tue 06:21:48 AM 51.9218 -5.2259 275° West 500 575 30,500  Descending FlightAware UK
Tue 06:22:07 AM 51.9240 -5.2780 275° West 437 503 32,000  Climbing FlightAware ADS-B
Tue 06:22:42 AM 51.9301 -5.4014 275° West 500 575 30,500  Descending FlightAware UK
Tue 06:22:47 AM 51.9300 -5.4050 275° West 436 502 32,000  Climbing FlightAware ADS-B
Tue 06:23:06 AM 51.9339 -5.4796 275° West 500 575 30,500 -2,432 Descending FlightAware UK
Tue 06:23:24 AM 51.9366 -5.5381 274° West 500 575 30,500 3,462 Level FlightAware UK
Tue 06:23:32 AM 51.9370 -5.5510 274° West 436 502 32,000  Climbing FlightAware ADS-B
Tue 06:23:48 AM 51.9402 -5.6160 274° West 500 575 30,500 -2,647 Descending FlightAware UK
Tue 06:24:06 AM 51.9428 -5.6745 274° West 498 573 30,500 4,737 Level FlightAware UK
Tue 06:24:07 AM 51.9420 -5.6560 274° West 436 502 32,000  Climbing FlightAware ADS-B
Tue 06:24:24 AM 51.9454 -5.7329 274° West 500 575 30,500 -2,571 Descending FlightAware UK
Tue 06:24:42 AM 51.9481 -5.7913 274° West 500 575 30,500 2,727 Level FlightAware UK
Tue 06:24:57 AM 51.9500 -5.8300 274° West 436 502 32,000  Climbing FlightAware ADS-B
Tue 06:25:12 AM 51.9525 -5.8887 274° West 500 575 30,500 -2,909 Descending FlightAware UK
Tue 06:25:30 AM 51.9552 -5.9472 274° West 498 573 30,400 3,600 Descending FlightAware UK
Tue 06:25:37 AM 51.9560 -5.9600 274° West 435 501 32,000 250 Climbing FlightAware ADS-B
Tue 06:25:54 AM 51.9585 -6.0244 274° West 500 575 30,500  Descending FlightAware UK
Tue 06:26:17 AM 51.9610 -6.0900 274° West 435 501 32,000  Climbing FlightAware ADS-B
Tue 06:26:36 AM 51.9641 -6.1605 274° West 500 575 30,500 -2,432 Descending FlightAware UK
Tue 06:26:54 AM 51.9665 -6.2188 274° West 500 575 30,500 3,462 Level FlightAware UK
Tue 06:27:02 AM 51.9670 -6.2360 274° West 433 498 32,000  Climbing FlightAware ADS-B
Tue 06:27:18 AM 51.9695 -6.2964 274° West 500 575 30,500 -2,647 Descending FlightAware UK
Tue 06:27:36 AM 51.9719 -6.3545 274° West 500 575 30,500 3,750 Level FlightAware UK
Tue 06:27:42 AM 51.9730 -6.3690 274° West 433 498 32,000 -250 Climbing FlightAware ADS-B
Tue 06:28:00 AM 51.9751 -6.4320 274° West 498 573 30,400 -2,667 Descending FlightAware UK
Tue 06:28:18 AM 51.9774 -6.4902 274° West 498 573 30,400 3,556 Level FlightAware UK
Tue 06:28:27 AM 51.9780 -6.5160 274° West 432 497 32,000  Climbing FlightAware ADS-B
Tue 06:28:42 AM 51.9803 -6.5677 274° West 498 573 30,400 -2,909 Descending FlightAware UK
Tue 06:29:00 AM 51.9825 -6.6259 274° West 498 573 30,400 3,840 Level FlightAware UK
Tue 06:29:07 AM 51.9830 -6.6390 274° West 433 498 32,000  Climbing FlightAware ADS-B
Tue 06:29:24 AM 51.9854 -6.7036 274° West 498 573 30,400 -2,743 Descending FlightAware UK
Tue 06:29:42 AM 51.9875 -6.7619 273° West 498 573 30,400 4,174 Level FlightAware UK
Tue 06:29:47 AM 51.9880 -6.7690 273° West 434 499 32,000 250 Climbing FlightAware ADS-B
Tue 06:30:06 AM 51.9903 -6.8398 273° West 500 575 30,500 -2,432 Descending FlightAware UK
Tue 06:30:24 AM 51.9924 -6.8982 273° West 500 575 30,500 3,462 Level FlightAware UK
Tue 06:30:32 AM 51.9930 -6.9170 273° West 433 498 32,000  Climbing FlightAware ADS-B
Tue 06:30:48 AM 51.9952 -6.9760 273° West 500 575 30,500 -2,824 Descending FlightAware UK
Tue 06:31:06 AM 51.9974 -7.0343 274° West 498 573 30,400 3,750 Descending FlightAware UK
Tue 06:31:12 AM 51.9980 -7.0450 274° West 432 497 32,000 250 Climbing FlightAware ADS-B
Tue 06:31:30 AM 52.0002 -7.1119 274° West 498 573 30,500 -2,500 Descending FlightAware UK
Tue 06:31:48 AM 52.0019 -7.1694 273° West 500 575 30,500 3,333 Level FlightAware UK
Tue 06:31:57 AM 52.0030 -7.1900 273° West 432 497 32,000  Climbing FlightAware ADS-B
Tue 06:32:12 AM 52.0044 -7.2469 273° West 500 575 30,500 -2,727 Descending FlightAware UK
Tue 06:32:30 AM 52.0065 -7.3049 273° West 500 575 30,500 3,600 Level FlightAware UK
Tue 06:32:37 AM 52.0070 -7.3200 273° West 431 496 32,000  Climbing FlightAware ADS-B
Tue 06:32:54 AM 52.0094 -7.3823 273° West 500 575 30,500 -2,571 Descending FlightAware UK
Tue 06:33:12 AM 52.0113 -7.4403 273° West 498 573 30,500 3,913 Level FlightAware UK
Tue 06:33:17 AM 52.0110 -7.4490 273° West 431 496 32,000  Climbing FlightAware ADS-B
Tue 06:33:36 AM 52.0137 -7.5175 273° West 498 573 30,500 -2,432 Descending FlightAware UK
Tue 06:33:54 AM 52.0154 -7.5754 273° West 500 575 30,500 3,462 Level FlightAware UK
Tue 06:34:02 AM 52.0150 -7.5930 273° West 431 496 32,000  Climbing FlightAware ADS-B
Tue 06:34:18 AM 52.0175 -7.6527 273° West 500 575 30,500 -2,647 Descending FlightAware UK
Tue 06:34:36 AM 52.0191 -7.7107 273° West 498 573 30,500 3,750 Level FlightAware UK
Tue 06:34:42 AM 52.0190 -7.7240 273° West 431 496 32,000  Climbing FlightAware ADS-B
Tue 06:35:00 AM 52.0212 -7.7881 273° West 498 573 30,500 -2,500 Descending FlightAware UK
Tue 06:35:18 AM 52.0228 -7.8461 272° West 498 573 30,500 3,333 Level FlightAware UK
Tue 06:35:27 AM 52.0230 -7.8560 272° West 432 497 32,000  Climbing FlightAware ADS-B
Tue 06:35:42 AM 52.0248 -7.9236 272° West 500 575 30,500 -2,727 Descending FlightAware UK
Tue 06:36:00 AM 52.0264 -7.9817 273° West 498 573 30,500 3,600 Level FlightAware UK
Tue 06:36:07 AM 52.0260 -7.9950 273° West 432 497 32,000  Climbing FlightAware ADS-B
Tue 06:36:24 AM 52.0277 -8.0591 273° West 500 575 30,500 -2,571 Descending FlightAware UK
Tue 06:36:42 AM 52.0292 -8.1172 272° West 500 575 30,500 3,913 Level FlightAware UK
Tue 06:36:47 AM 52.0290 -8.1150 272° West 431 496 32,000  Climbing FlightAware ADS-B
Tue 06:37:06 AM 52.0312 -8.1946 272° West 498 573 30,500 -2,595 Descending FlightAware UK
Tue 06:37:24 AM 52.0327 -8.2527 272° West 498 573 30,400 -167 Descending FlightAware UK
Tue 06:37:42 AM 52.0340 -8.3107 272° West 498 573 30,400 167 Level FlightAware UK
Tue 06:38:00 AM 52.0352 -8.3682 272° West 498 573 30,500 167 Climbing FlightAware UK
Tue 06:38:18 AM 52.0365 -8.4264 272° West 498 573 30,500  Level FlightAware UK
Tue 06:38:36 AM 52.0378 -8.4846 272° West 500 575 30,500  Level FlightAware UK
Tue 06:38:54 AM 52.0391 -8.5428 272° West 500 575 30,500  Level FlightAware UK
Tue 06:39:12 AM 52.0402 -8.6011 272° West 500 575 30,500 3,214 Level FlightAware UK
Tue 06:39:22 AM 52.0410 -8.6290 272° West 432 497 32,000  Climbing FlightAware ADS-B
Tue 06:39:42 AM 52.0424 -8.6981 272° West 498 573 30,500 -2,368 Descending FlightAware UK
Tue 06:40:00 AM 52.0436 -8.7565 272° West 500 575 30,500  Level FlightAware UK
Tue 06:40:18 AM 52.0448 -8.8149 272° West 500 575 30,500  Level FlightAware UK
Tue 06:40:36 AM 52.0458 -8.8733 272° West 500 575 30,500  Level FlightAware UK
Tue 06:40:54 AM 52.0470 -8.9316 272° West 500 575 30,500  Level FlightAware UK
Tue 06:41:12 AM 52.0481 -8.9899 272° West 500 575 30,500 968 Level FlightAware UK
Tue 06:42:27 AM 52.0520 -9.2200 272° West 431 496 32,000 462 Climbing FlightAware ADS-B
Tue 06:44:00 AM 52.0887 -9.5079 282° West  Level Estimated
Tue 06:44:27 AM 52.0570 -9.6090 282° West 432 497 32,000  Level FlightAware ADS-B
Tue 06:47:00 AM 52.1156 -10.0834 282° West  Level Estimated
Tue 06:47:17 AM 52.0630 -10.1600 282° West 432 497 32,000  Level FlightAware ADS-B
Tue 06:48:37 AM 52.0640 -10.4070 270° West 432 497 32,000  Level FlightAware ADS-B
Tue 06:51:00 AM 52.1163 -10.8512 281° West  Level Estimated
Tue 06:52:00 AM 52.1378 -11.0379 281° West  Level Estimated
Tue 06:52:07 AM 52.0660 -11.0860 281° West 432 497 32,000  Level FlightAware ADS-B
Tue 06:53:07 AM 52.0660 -11.2860 270° West 432 497 32,000  Level FlightAware ADS-B
Tue 06:53:52 AM 52.0650 -11.4320 269° West 432 497 32,000  Level FlightAware ADS-B
Tue 06:54:37 AM 52.0650 -11.5680 270° West 432 497 32,000  Level FlightAware ADS-B
Tue 06:55:22 AM 52.0630 -11.7000 269° West 432 497 32,000  Level FlightAware ADS-B
Tue 06:56:12 AM 52.0620 -11.8380 269° West 432 497 32,000  Level FlightAware ADS-B
Tue 06:56:52 AM 52.0610 -11.9490 269° West 432 497 32,000  Level FlightAware ADS-B
Tue 06:57:32 AM 52.0600 -12.0590 269° West 432 497 32,000  Level FlightAware ADS-B
Tue 06:58:12 AM 52.0580 -12.1700 268° West 432 497 32,000  Level FlightAware ADS-B
Tue 06:58:52 AM 52.0570 -12.2800 269° West 432 497 32,000  Level FlightAware ADS-B
Tue 06:59:32 AM 52.0560 -12.3910 269° West 432 497 32,000  Level FlightAware ADS-B
Tue 07:00:22 AM 52.0540 -12.5290 269° West 432 497 32,000  Level FlightAware ADS-B
Tue 07:01:02 AM 52.0530 -12.6390 269° West 432 497 32,000  Level FlightAware ADS-B
Tue 07:01:42 AM 52.0520 -12.7500 269° West 432 497 32,000  Level FlightAware ADS-B
Tue 07:02:22 AM 52.0510 -12.8600 269° West 432 497 32,000  Level FlightAware ADS-B
Tue 07:03:02 AM 52.0500 -12.9710 269° West 432 497 32,000  Level FlightAware ADS-B
Tue 07:03:52 AM 52.0480 -13.1090 269° West 432 497 32,000  Level FlightAware ADS-B
Tue 07:04:32 AM 52.0470 -13.2200 269° West 432 497 32,000  Level FlightAware ADS-B
Tue 07:07:00 AM 52.0918 -13.6822 279° West  Level Estimated
Tue 07:08:00 AM 52.1095 -13.8698 279° West  Level Estimated
Tue 07:09:00 AM 52.1269 -14.0576 279° West  Level Estimated
Tue 07:10:00 AM 52.1439 -14.2455 278° West  Level Estimated
Tue 07:11:00 AM 52.1607 -14.4335 278° West  Level Estimated
Tue 07:12:00 AM 52.1772 -14.6217 278° West  Level Estimated
Tue 07:13:00 AM 52.1933 -14.8096 278° West  Level Estimated
Tue 07:14:00 AM 52.2091 -14.9977 278° West  Level Estimated
Tue 07:15:00 AM 52.2247 -15.1858 278° West  Level Estimated
Tue 07:16:00 AM 52.2399 -15.3741 278° West  Level Estimated
Tue 07:17:00 AM 52.2548 -15.5626 277° West  Level Estimated
Tue 07:18:00 AM 52.2695 -15.7511 277° West  Level Estimated
Tue 07:19:00 AM 52.2838 -15.9398 277° West  Level Estimated
Tue 07:20:00 AM 52.2978 -16.1286 277° West  Level Estimated
Tue 07:21:00 AM 52.3116 -16.3175 277° West  Level Estimated
Tue 07:22:00 AM 52.3250 -16.5066 277° West  Level Estimated
Tue 07:23:00 AM 52.3381 -16.6957 277° West  Level Estimated
Tue 07:24:00 AM 52.3509 -16.8850 276° West  Level Estimated
Tue 07:25:00 AM 52.3635 -17.0743 276° West  Level Estimated
Tue 07:26:00 AM 52.3759 -17.2676 276° West  Level Estimated
Tue 07:27:00 AM 52.3881 -17.4610 276° West  Level Estimated
Tue 07:28:00 AM 52.3997 -17.6505 276° West  Level Estimated
Tue 07:29:00 AM 52.4109 -17.8401 276° West  Level Estimated
Tue 07:30:00 AM 52.4219 -18.0297 275° West  Level Estimated
Tue 07:31:00 AM 52.4326 -18.2195 275° West  Level Estimated
Tue 07:32:00 AM 52.4430 -18.4093 275° West  Level Estimated
Tue 07:33:00 AM 52.4531 -18.5992 275° West  Level Estimated
Tue 07:34:00 AM 52.4628 -18.7893 275° West  Level Estimated
Tue 07:35:00 AM 52.4723 -18.9794 275° West  Level Estimated
Tue 07:36:00 AM 52.4814 -19.1695 275° West  Level Estimated
Tue 07:37:00 AM 52.4903 -19.3598 274° West  Level Estimated
Tue 07:38:00 AM 52.4989 -19.5501 274° West  Level Estimated
Tue 07:38:00 AM 52.0000 -20.0000 274° West 425 489 32,000  Level ETMS Enhanced Traffic Management System
Tue 07:39:00 AM 52.5071 -19.7410 274° West  Level Estimated
Tue 07:40:00 AM 52.5151 -19.9319 274° West  Level Estimated
Tue 07:41:00 AM 52.5227 -20.1229 274° West  Level Estimated
Tue 07:42:00 AM 52.5300 -20.3139 274° West  Level Estimated
Tue 07:43:00 AM 52.5371 -20.5050 274° West  Level Estimated
Tue 07:44:00 AM 52.0493 -21.3435 273° West 425 489 32,000  Level FlightAware Transoceanic
Tue 07:45:00 AM 52.0551 -21.5356 273° West 425 489 32,000  Level FlightAware Transoceanic
Tue 07:46:00 AM 52.0606 -21.7278 273° West 425 489 32,000  Level FlightAware Transoceanic
Tue 07:47:00 AM 52.0658 -21.9200 272° West 425 489 32,000  Level FlightAware Transoceanic
Tue 07:48:00 AM 52.0706 -22.1123 272° West 425 489 32,000  Level FlightAware Transoceanic
Tue 07:49:00 AM 52.0752 -22.3047 272° West 425 489 32,000  Level FlightAware Transoceanic
Tue 07:50:00 AM 52.0794 -22.4970 272° West 425 489 32,000  Level FlightAware Transoceanic
Tue 07:51:00 AM 52.0833 -22.6894 272° West 425 489 32,000  Level FlightAware Transoceanic
Tue 07:52:00 AM 52.0869 -22.8819 272° West 425 489 32,000  Level FlightAware Transoceanic
Tue 07:53:00 AM 52.0902 -23.0743 272° West 425 489 32,000  Level FlightAware Transoceanic
Tue 07:54:00 AM 52.0932 -23.2668 271° West 425 489 32,000  Level FlightAware Transoceanic
Tue 07:55:00 AM 52.0959 -23.4593 271° West 425 489 32,000  Level FlightAware Transoceanic
Tue 07:56:00 AM 52.0982 -23.6519 271° West 425 489 32,000  Level FlightAware Transoceanic
Tue 07:57:00 AM 52.1003 -23.8444 271° West 425 489 32,000  Level FlightAware Transoceanic
Tue 07:58:00 AM 52.1020 -24.0370 271° West 425 489 32,000  Level FlightAware Transoceanic
Tue 07:59:00 AM 52.1034 -24.2296 271° West 425 489 32,000  Level FlightAware Transoceanic
Tue 08:00:00 AM 52.1045 -24.4222 270° West 425 489 32,000  Level FlightAware Transoceanic
Tue 08:01:00 AM 52.1053 -24.6148 270° West 425 489 32,000  Level FlightAware Transoceanic
Tue 08:02:00 AM 52.1058 -24.8074 270° West 425 489 32,000  Level FlightAware Transoceanic
Tue 08:03:00 AM 52.1059 -25.0000 270° West 425 489 32,000  Level FlightAware Transoceanic
Tue 08:04:00 AM 52.1058 -25.1926 270° West 425 489 32,000  Level FlightAware Transoceanic
Tue 08:05:00 AM 52.1053 -25.3852 270° West 425 489 32,000  Level FlightAware Transoceanic
Tue 08:06:00 AM 52.1045 -25.5778 270° West 425 489 32,000  Level FlightAware Transoceanic
Tue 08:07:00 AM 52.1034 -25.7704 269° West 425 489 32,000  Level FlightAware Transoceanic
Tue 08:08:00 AM 52.1020 -25.9630 269° West 425 489 32,000  Level FlightAware Transoceanic
Tue 08:09:00 AM 52.1003 -26.1556 269° West 425 489 32,000  Level FlightAware Transoceanic
Tue 08:10:00 AM 52.0982 -26.3481 269° West 425 489 32,000  Level FlightAware Transoceanic
Tue 08:11:00 AM 52.0959 -26.5407 269° West 425 489 32,000  Level FlightAware Transoceanic
Tue 08:12:00 AM 52.0932 -26.7332 269° West 425 489 32,000  Level FlightAware Transoceanic
Tue 08:13:00 AM 52.0902 -26.9257 268° West 425 489 32,000  Level FlightAware Transoceanic
Tue 08:14:00 AM 52.0869 -27.1181 268° West 425 489 32,000  Level FlightAware Transoceanic
Tue 08:15:00 AM 52.0833 -27.3106 268° West 425 489 32,000  Level FlightAware Transoceanic
Tue 08:16:00 AM 52.0794 -27.5030 268° West 425 489 32,000  Level FlightAware Transoceanic
Tue 08:17:00 AM 52.0752 -27.6953 268° West 425 489 32,000  Level FlightAware Transoceanic
Tue 08:18:00 AM 52.0706 -27.8877 268° West 425 489 32,000  Level FlightAware Transoceanic
Tue 08:19:00 AM 52.0658 -28.0800 268° West 425 489 32,000  Level FlightAware Transoceanic
Tue 08:20:00 AM 52.0606 -28.2722 267° West 425 489 32,000  Level FlightAware Transoceanic
Tue 08:21:00 AM 52.0551 -28.4644 267° West 425 489 32,000  Level FlightAware Transoceanic
Tue 08:22:00 AM 52.0493 -28.6565 267° West 425 489 32,000  Level FlightAware Transoceanic
Tue 08:23:00 AM 52.0432 -28.8486 267° West 425 489 32,000  Level FlightAware Transoceanic
Tue 08:24:00 AM 52.0368 -29.0407 267° West 425 489 32,000  Level FlightAware Transoceanic
Tue 08:25:00 AM 52.0301 -29.2327 267° West 425 489 32,000  Level FlightAware Transoceanic
Tue 08:26:00 AM 52.0230 -29.4246 267° West 425 489 32,000  Level FlightAware Transoceanic
Tue 08:27:00 AM 52.0157 -29.6165 266° West 425 489 32,000  Level FlightAware Transoceanic
Tue 08:28:00 AM 52.0080 -29.8083 266° West 425 489 32,000  Level FlightAware Transoceanic
Tue 08:29:00 AM 52.0001 -29.9970 266° West  Level FlightAware Approximate
Tue 08:30:00 AM 51.9917 -30.1857 266° West  Level FlightAware Approximate
Tue 08:31:00 AM 52.0076 -30.1828 274° West  Level FlightAware Approximate
Tue 08:32:00 AM 52.0152 -30.3716 274° West  Level FlightAware Approximate
Tue 08:33:00 AM 52.0225 -30.5605 274° West  Level FlightAware Approximate
Tue 08:34:00 AM 52.0294 -30.7494 274° West  Level FlightAware Approximate
Tue 08:35:00 AM 52.0361 -30.9384 273° West  Level FlightAware Approximate
Tue 08:36:00 AM 52.0424 -31.1275 273° West  Level FlightAware Approximate
Tue 08:37:00 AM 52.0485 -31.3166 273° West  Level FlightAware Approximate
Tue 08:38:00 AM 52.0542 -31.5058 273° West  Level FlightAware Approximate
Tue 08:39:00 AM 52.0597 -31.6950 273° West  Level FlightAware Approximate
Tue 08:40:00 AM 52.0648 -31.8842 273° West  Level FlightAware Approximate
Tue 08:41:00 AM 52.0697 -32.0735 272° West  Level FlightAware Approximate
Tue 08:42:00 AM 52.0742 -32.2628 272° West  Level FlightAware Approximate
Tue 08:43:00 AM 52.0785 -32.4522 272° West  Level FlightAware Approximate
Tue 08:44:00 AM 52.0824 -32.6416 272° West  Level FlightAware Approximate
Tue 08:45:00 AM 52.0860 -32.8310 272° West  Level FlightAware Approximate
Tue 08:46:00 AM 52.0894 -33.0205 272° West  Level FlightAware Approximate
Tue 08:47:00 AM 52.0924 -33.2100 272° West  Level FlightAware Approximate
Tue 08:48:00 AM 52.0951 -33.3995 271° West  Level FlightAware Approximate
Tue 08:49:00 AM 52.0975 -33.5890 271° West  Level FlightAware Approximate
Tue 08:50:00 AM 52.0996 -33.7786 271° West  Level FlightAware Approximate
Tue 08:51:00 AM 52.1014 -33.9682 271° West  Level FlightAware Approximate
Tue 08:52:00 AM 52.1029 -34.1577 271° West  Level FlightAware Approximate
Tue 08:53:00 AM 52.1041 -34.3474 271° West  Level FlightAware Approximate
Tue 08:54:00 AM 52.1050 -34.5370 271° West  Level FlightAware Approximate
Tue 08:55:00 AM 52.1056 -34.7266 270° West  Level FlightAware Approximate
Tue 08:56:00 AM 52.1059 -34.9162 270° West  Level FlightAware Approximate
Tue 08:57:00 AM 52.1059 -35.1058 270° West  Level FlightAware Approximate
Tue 08:58:00 AM 52.1056 -35.2954 270° West  Level FlightAware Approximate
Tue 08:59:00 AM 52.1049 -35.4850 270° West  Level FlightAware Approximate
Tue 09:00:00 AM 52.1040 -35.6746 270° West  Level FlightAware Approximate
Tue 09:01:00 AM 52.1028 -35.8643 269° West  Level FlightAware Approximate
Tue 09:02:00 AM 52.1012 -36.0538 269° West  Level FlightAware Approximate
Tue 09:03:00 AM 52.0994 -36.2434 269° West  Level FlightAware Approximate
Tue 09:04:00 AM 52.0972 -36.4330 269° West  Level FlightAware Approximate
Tue 09:05:00 AM 52.0948 -36.6225 269° West  Level FlightAware Approximate
Tue 09:06:00 AM 52.0920 -36.8120 269° West  Level FlightAware Approximate
Tue 09:07:00 AM 52.0890 -37.0015 269° West  Level FlightAware Approximate
Tue 09:08:00 AM 52.0856 -37.1909 268° West  Level FlightAware Approximate
Tue 09:09:00 AM 52.0820 -37.3804 268° West  Level FlightAware Approximate
Tue 09:10:00 AM 52.0780 -37.5698 268° West  Level FlightAware Approximate
Tue 09:11:00 AM 52.0737 -37.7591 268° West  Level FlightAware Approximate
Tue 09:12:00 AM 52.0691 -37.9485 268° West  Level FlightAware Approximate
Tue 09:13:00 AM 52.0643 -38.1378 268° West  Level FlightAware Approximate
Tue 09:14:00 AM 52.0591 -38.3270 268° West  Level FlightAware Approximate
Tue 09:15:00 AM 52.0536 -38.5162 267° West  Level FlightAware Approximate
Tue 09:16:00 AM 52.0478 -38.7053 267° West  Level FlightAware Approximate
Tue 09:17:00 AM 52.0417 -38.8945 267° West  Level FlightAware Approximate
Tue 09:18:00 AM 52.0353 -39.0835 267° West  Level FlightAware Approximate
Tue 09:19:00 AM 52.0286 -39.2725 267° West  Level FlightAware Approximate
Tue 09:20:00 AM 52.0216 -39.4619 267° West  Level FlightAware Approximate
Tue 09:21:00 AM 52.0143 -39.6512 266° West  Level FlightAware Approximate
Tue 09:22:00 AM 52.0067 -39.8404 266° West  Level FlightAware Approximate
Tue 09:23:00 AM 51.9953 -40.0287 255° West  Level FlightAware Approximate
Tue 09:24:00 AM 51.9653 -40.2118 255° West  Level FlightAware Approximate
Tue 09:25:00 AM 51.9351 -40.3948 255° West  Level FlightAware Approximate
Tue 09:26:00 AM 51.9045 -40.5774 255° West  Level FlightAware Approximate
Tue 09:27:00 AM 51.8736 -40.7599 255° West  Level FlightAware Approximate
Tue 09:28:00 AM 51.8425 -40.9420 255° West  Level FlightAware Approximate
Tue 09:29:00 AM 51.8111 -41.1240 254° West  Level FlightAware Approximate
Tue 09:30:00 AM 51.7797 -41.3057 255° West  Level FlightAware Approximate
Tue 09:31:00 AM 51.7498 -41.4881 255° West  Level FlightAware Approximate
Tue 09:32:00 AM 51.7197 -41.6702 255° West  Level FlightAware Approximate
Tue 09:33:00 AM 51.6893 -41.8520 255° West  Level FlightAware Approximate
Tue 09:34:00 AM 51.6586 -42.0336 255° West  Level FlightAware Approximate
Tue 09:35:00 AM 51.6276 -42.2150 255° West  Level FlightAware Approximate
Tue 09:36:00 AM 51.5964 -42.3961 255° West  Level FlightAware Approximate
Tue 09:37:00 AM 51.5649 -42.5771 255° West  Level FlightAware Approximate
Tue 09:38:00 AM 51.5349 -42.7584 255° West  Level FlightAware Approximate
Tue 09:39:00 AM 51.5045 -42.9396 255° West  Level FlightAware Approximate
Tue 09:40:00 AM 51.4739 -43.1205 255° West  Level FlightAware Approximate
Tue 09:41:00 AM 51.4430 -43.3012 255° West  Level FlightAware Approximate
Tue 09:42:00 AM 51.4118 -43.4816 255° West  Level FlightAware Approximate
Tue 09:43:00 AM 51.3803 -43.6617 254° West  Level FlightAware Approximate
Tue 09:44:00 AM 51.3484 -43.8416 253° West  Level FlightAware Approximate
Tue 09:45:00 AM 51.3147 -44.0205 253° West  Level FlightAware Approximate
Tue 09:46:00 AM 51.2808 -44.1991 253° West  Level FlightAware Approximate
Tue 09:47:00 AM 51.2465 -44.3774 253° West  Level FlightAware Approximate
Tue 09:48:00 AM 51.2120 -44.5555 253° West  Level FlightAware Approximate
Tue 09:49:00 AM 51.1772 -44.7333 253° West  Level FlightAware Approximate
Tue 09:50:00 AM 51.1421 -44.9109 253° West  Level FlightAware Approximate
Tue 09:51:00 AM 51.1068 -45.0881 252° West  Level FlightAware Approximate
Tue 09:52:00 AM 51.0712 -45.2651 252° West  Level FlightAware Approximate
Tue 09:53:00 AM 51.0353 -45.4418 252° West  Level FlightAware Approximate
Tue 09:54:00 AM 50.9992 -45.6183 252° West  Level FlightAware Approximate
Tue 09:55:00 AM 50.9628 -45.7945 252° West  Level FlightAware Approximate
Tue 09:56:00 AM 50.9262 -45.9704 252° West  Level FlightAware Approximate
Tue 09:57:00 AM 50.8892 -46.1460 252° West  Level FlightAware Approximate
Tue 09:58:00 AM 50.8520 -46.3213 251° West  Level FlightAware Approximate
Tue 09:59:00 AM 50.8146 -46.4964 251° West  Level FlightAware Approximate
Tue 10:00:00 AM 50.7769 -46.6712 251° West  Level FlightAware Approximate
Tue 10:01:00 AM 50.7389 -46.8457 251° West  Level FlightAware Approximate
Tue 10:02:00 AM 50.7007 -47.0199 251° West  Level FlightAware Approximate
Tue 10:03:00 AM 50.6622 -47.1938 251° West  Level FlightAware Approximate
Tue 10:04:00 AM 50.6234 -47.3675 251° West  Level FlightAware Approximate
Tue 10:05:00 AM 50.5844 -47.5408 251° West  Level FlightAware Approximate
Tue 10:06:00 AM 50.5452 -47.7139 250° West  Level FlightAware Approximate
Tue 10:07:00 AM 50.5056 -47.8867 250° West  Level FlightAware Approximate
Tue 10:08:00 AM 50.4659 -48.0591 250° West  Level FlightAware Approximate
Tue 10:09:00 AM 50.4258 -48.2313 250° West  Level FlightAware Approximate
Tue 10:10:00 AM 50.3855 -48.4032 250° West  Level FlightAware Approximate
Tue 10:11:00 AM 50.3449 -48.5752 250° West  Level FlightAware Approximate
Tue 10:11:10 AM 49.9500 -50.1167 249° West 450 518 32,000  Level Moncton Center
Tue 10:12:00 AM 50.3040 -48.7470 250° West  Level FlightAware Approximate
Tue 10:12:10 AM 49.9000 -50.2833 245° Southwest 450 518 32,000  Level Moncton Center
Tue 10:13:00 AM 50.2627 -48.9191 249° West  Level FlightAware Approximate
Tue 10:13:10 AM 49.8667 -50.4833 256° West 450 518 32,000  Level Moncton Center
Tue 10:14:00 AM 50.2211 -49.0909 249° West  Level FlightAware Approximate
Tue 10:14:10 AM 49.8000 -50.6500 238° Southwest 450 518 32,000  Level Moncton Center
Tue 10:15:00 AM 50.1793 -49.2625 249° West  Level FlightAware Approximate
Tue 10:16:00 AM 50.1372 -49.4337 249° West  Level FlightAware Approximate
Tue 10:20:32 AM 49.5090 -51.8570 238° Southwest 455 524 32,000  Level FlightAware ADS-B
Tue 10:21:17 AM 49.4710 -51.9880 246° West 455 524 32,000  Level FlightAware ADS-B
Tue 10:21:57 AM 49.4380 -52.1030 246° West 456 525 32,000  Level FlightAware ADS-B
Tue 10:22:37 AM 49.4050 -52.2150 246° West 453 521 32,000  Level FlightAware ADS-B
Tue 10:23:22 AM 49.3710 -52.3330 246° West 453 521 32,000  Level FlightAware ADS-B
Tue 10:24:02 AM 49.3270 -52.4780 245° Southwest 460 529 32,000  Level FlightAware ADS-B
Tue 10:24:37 AM 49.2980 -52.5760 246° West 460 529 32,000  Level FlightAware ADS-B
Tue 10:25:27 AM 49.2540 -52.7230 245° Southwest 461 531 32,000  Level FlightAware ADS-B
Tue 10:26:07 AM 49.2180 -52.8420 245° Southwest 460 529 32,000  Level FlightAware ADS-B
Tue 10:26:52 AM 49.1770 -52.9800 246° West 458 527 32,000  Level FlightAware ADS-B
Tue 10:27:37 AM 49.1380 -53.1070 245° Southwest 457 526 32,000  Level FlightAware ADS-B
Tue 10:28:17 AM 49.1020 -53.2240 245° Southwest 455 524 32,000  Level FlightAware ADS-B
Tue 10:28:52 AM 49.0720 -53.3230 245° Southwest 455 524 32,000  Level FlightAware ADS-B
Tue 10:29:37 AM 49.0320 -53.4520 245° Southwest 455 524 32,000  Level FlightAware ADS-B
Tue 10:30:22 AM 48.9920 -53.5810 245° Southwest 454 522 32,000  Level FlightAware ADS-B
Tue 10:31:02 AM 48.9580 -53.6920 245° Southwest 456 525 32,000  Level FlightAware ADS-B
Tue 10:31:47 AM 48.9160 -53.8250 244° Southwest 456 525 32,000  Level FlightAware ADS-B
Tue 10:32:27 AM 48.8800 -53.9380 244° Southwest 456 525 32,000  Level FlightAware ADS-B
Tue 10:33:12 AM 48.8380 -54.0710 244° Southwest 454 522 32,000  Level FlightAware ADS-B
Tue 10:33:52 AM 48.8020 -54.1850 244° Southwest 452 520 32,000  Level FlightAware ADS-B
Tue 10:34:32 AM 48.7650 -54.3010 244° Southwest 449 517 32,000  Level FlightAware ADS-B
Tue 10:35:07 AM 48.7350 -54.3960 244° Southwest 449 517 32,000  Level FlightAware ADS-B
Tue 10:35:57 AM 48.6910 -54.5320 244° Southwest 449 517 32,000  Level FlightAware ADS-B
Tue 10:36:32 AM 48.6620 -54.6210 244° Southwest 449 517 32,000  Level FlightAware ADS-B
Tue 10:37:22 AM 48.6090 -54.7860 244° Southwest 447 514 32,000  Level FlightAware ADS-B
Tue 10:38:17 AM 48.5590 -54.9370 243° Southwest 446 513 32,000  Level FlightAware ADS-B
Tue 10:39:42 AM 48.4850 -55.1630 244° Southwest 440 506 32,000  Level FlightAware ADS-B
Tue 10:40:32 AM 48.4410 -55.2930 243° Southwest 440 506 32,000  Level FlightAware ADS-B
Tue 10:41:22 AM 48.3970 -55.4260 244° Southwest 440 506 32,000  Level FlightAware ADS-B
Tue 10:42:17 AM 48.3420 -55.5930 244° Southwest 436 502 32,000  Level FlightAware ADS-B
Tue 10:42:52 AM 48.3130 -55.6780 243° Southwest 436 502 32,000  Level FlightAware ADS-B
Tue 10:43:47 AM 48.2620 -55.8290 243° Southwest 436 502 32,000  Level FlightAware ADS-B
Tue 10:44:47 AM 48.2090 -55.9850 243° Southwest 434 499 32,000  Level FlightAware ADS-B
Tue 10:45:27 AM 48.1780 -56.0760 243° Southwest 434 499 32,000  Level FlightAware ADS-B
Tue 10:46:07 AM 48.1470 -56.1670 243° Southwest 434 499 32,000  Level FlightAware ADS-B
Tue 10:46:57 AM 48.1080 -56.2810 243° Southwest 434 499 32,000  Level FlightAware ADS-B
Tue 10:47:37 AM 48.0530 -56.4340 242° Southwest 427 491 32,000  Level FlightAware ADS-B
Tue 10:48:17 AM 48.0220 -56.5230 243° Southwest 427 491 32,000  Level FlightAware ADS-B
Tue 10:48:57 AM 47.9900 -56.6110 242° Southwest 427 491 32,000  Level FlightAware ADS-B
Tue 10:49:47 AM 47.9360 -56.7720 243° Southwest 416 479 32,000  Level FlightAware ADS-B
Tue 10:50:22 AM 47.9070 -56.8510 241° Southwest 416 479 32,000  Level FlightAware ADS-B
Tue 10:51:12 AM 47.8690 -56.9590 242° Southwest 416 479 32,000  Level FlightAware ADS-B
Tue 10:51:42 AM 47.8460 -57.0240 242° Southwest 416 479 32,000  Level FlightAware ADS-B
Tue 10:52:32 AM 47.8070 -57.1310 242° Southwest 416 479 32,000  Level FlightAware ADS-B
Tue 10:53:12 AM 47.7770 -57.2170 243° Southwest 416 479 32,000  Level FlightAware ADS-B
Tue 10:53:52 AM 47.7460 -57.3030 242° Southwest 416 479 32,000  Level FlightAware ADS-B
Tue 10:54:42 AM 47.7080 -57.4110 242° Southwest 416 479 32,000  Level FlightAware ADS-B
Tue 10:55:22 AM 47.6770 -57.4960 242° Southwest 416 479 32,000  Level FlightAware ADS-B
Tue 10:56:02 AM 47.6460 -57.5820 242° Southwest 416 479 32,000  Level FlightAware ADS-B
Tue 10:56:42 AM 47.6150 -57.6680 242° Southwest 416 479 32,000  Level FlightAware ADS-B
Tue 10:57:22 AM 47.5850 -57.7540 243° Southwest 416 479 32,000  Level FlightAware ADS-B
Tue 10:58:12 AM 47.5460 -57.8610 242° Southwest 416 479 32,000  Level FlightAware ADS-B
Tue 10:58:52 AM 47.5160 -57.9460 242° Southwest 416 479 32,000  Level FlightAware ADS-B
Tue 10:59:32 AM 47.4850 -58.0320 242° Southwest 416 479 32,000  Level FlightAware ADS-B
Tue 11:01:57 AM 47.2970 -58.5260 241° Southwest 394 453 32,000  Level FlightAware ADS-B
Tue 11:02:37 AM 47.2610 -58.6200 241° Southwest 396 456 32,000  Level FlightAware ADS-B
Tue 11:03:17 AM 47.2260 -58.7150 242° Southwest 397 457 32,000  Level FlightAware ADS-B
Tue 11:04:02 AM 47.1860 -58.8180 240° Southwest 397 457 32,000  Level FlightAware ADS-B
Tue 11:04:42 AM 47.1500 -58.9140 241° Southwest 398 458 32,000  Level FlightAware ADS-B
Tue 11:05:22 AM 47.1130 -59.0100 241° Southwest 400 460 32,000  Level FlightAware ADS-B
Tue 11:06:07 AM 47.0740 -59.1120 241° Southwest 401 461 32,000  Level FlightAware ADS-B
Tue 11:06:47 AM 47.0380 -59.2060 241° Southwest 402 463 32,000  Level FlightAware ADS-B
Tue 11:07:32 AM 46.9950 -59.3150 240° Southwest 402 463 32,000  Level FlightAware ADS-B
Tue 11:08:12 AM 46.9580 -59.4110 241° Southwest 402 463 32,000  Level FlightAware ADS-B
Tue 11:08:52 AM 46.9220 -59.5050 241° Southwest 402 463 32,000  Level FlightAware ADS-B
Tue 11:09:37 AM 46.8810 -59.6090 240° Southwest 403 464 32,000  Level FlightAware ADS-B
Tue 11:10:17 AM 46.8430 -59.7060 240° Southwest 403 464 32,000  Level FlightAware ADS-B
Tue 11:11:02 AM 46.8020 -59.8100 240° Southwest 402 463 32,000  Level FlightAware ADS-B
Tue 11:11:42 AM 46.7660 -59.9010 240° Southwest 402 463 32,000  Level FlightAware ADS-B
Tue 11:12:27 AM 46.7230 -60.0100 240° Southwest 403 464 32,000  Level FlightAware ADS-B
Tue 11:13:07 AM 46.6850 -60.1050 240° Southwest 402 463 32,000  Level FlightAware ADS-B
Tue 11:13:47 AM 46.6470 -60.1990 240° Southwest 403 464 32,000  Level FlightAware ADS-B
Tue 11:14:32 AM 46.6060 -60.3010 240° Southwest 404 465 32,000  Level FlightAware ADS-B
Tue 11:15:12 AM 46.5690 -60.3930 240° Southwest 405 466 32,000  Level FlightAware ADS-B
Tue 11:15:52 AM 46.5310 -60.4880 240° Southwest 405 466 32,000  Level FlightAware ADS-B
Tue 11:16:37 AM 46.4870 -60.5970 240° Southwest 406 467 32,000  Level FlightAware ADS-B
Tue 11:17:17 AM 46.4490 -60.6900 239° Southwest 406 467 32,000  Level FlightAware ADS-B
Tue 11:18:02 AM 46.4080 -60.7910 240° Southwest 406 467 32,000  Level FlightAware ADS-B
Tue 11:18:42 AM 46.3690 -60.8860 239° Southwest 406 467 32,000  Level FlightAware ADS-B
Tue 11:19:22 AM 46.3300 -60.9800 239° Southwest 407 468 32,000  Level FlightAware ADS-B
Tue 11:20:07 AM 46.2860 -61.0860 239° Southwest 407 468 32,000  Level FlightAware ADS-B
Tue 11:20:47 AM 46.2480 -61.1790 239° Southwest 406 467 32,000  Level FlightAware ADS-B
Tue 11:21:32 AM 46.2050 -61.2820 239° Southwest 407 468 32,000  Level FlightAware ADS-B
Tue 11:22:12 AM 46.1660 -61.3760 239° Southwest 405 466 32,000  Level FlightAware ADS-B
Tue 11:22:57 AM 46.1220 -61.4790 238° Southwest 406 467 32,000  Level FlightAware ADS-B
Tue 11:23:37 AM 46.0830 -61.5720 239° Southwest 406 467 32,000  Level FlightAware ADS-B
Tue 11:24:17 AM 46.0460 -61.6600 239° Southwest 407 468 32,000  Level FlightAware ADS-B
Tue 11:25:02 AM 46.0060 -61.7540 239° Southwest 407 468 32,000  Level FlightAware ADS-B
Tue 11:25:42 AM 45.9720 -61.8320 238° Southwest 407 468 32,000  Level FlightAware ADS-B
Tue 11:26:22 AM 45.9380 -61.9100 238° Southwest 407 468 32,000  Level FlightAware ADS-B
Tue 11:27:03 AM 45.9040 -61.9880 238° Southwest 407 468 32,000  Level FlightAware ADS-B
Tue 11:27:42 AM 45.8700 -62.0660 238° Southwest 407 468 32,000  Level FlightAware ADS-B
Tue 11:28:32 AM 45.8270 -62.1640 238° Southwest 407 468 32,000  Level FlightAware ADS-B
Tue 11:29:12 AM 45.7930 -62.2410 238° Southwest 407 468 32,000  Level FlightAware ADS-B
Tue 11:29:52 AM 45.7600 -62.3190 239° Southwest 407 468 32,000  Level FlightAware ADS-B
Tue 11:30:32 AM 45.7260 -62.3970 238° Southwest 407 468 32,000  Level FlightAware ADS-B
Tue 11:31:12 AM 45.6920 -62.4750 238° Southwest 407 468 32,000  Level FlightAware ADS-B
Tue 11:32:02 AM 45.6490 -62.5720 238° Southwest 407 468 32,000  Level FlightAware ADS-B
Tue 11:32:42 AM 45.6150 -62.6500 238° Southwest 407 468 32,000  Level FlightAware ADS-B
Tue 11:33:22 AM 45.5810 -62.7270 238° Southwest 407 468 32,000  Level FlightAware ADS-B
Tue 11:34:02 AM 45.5470 -62.8050 238° Southwest 407 468 32,000  Level FlightAware ADS-B
Tue 11:37:02 AM 45.2860 -63.4050 238° Southwest 32,000  Level FlightAware ADS-B
Tue 11:38:02 AM 45.2220 -63.5450 237° Southwest 411 473 32,000  Level FlightAware ADS-B
Tue 11:42:52 AM 44.9310 -64.1840 237° Southwest 410 472 32,000  Level FlightAware ADS-B
Tue 11:44:22 AM 44.8310 -64.4000 237° Southwest 411 473 32,000  Level FlightAware ADS-B
Tue 11:45:07 AM 44.7830 -64.5030 237° Southwest 411 473 32,000  Level FlightAware ADS-B
Tue 11:45:47 AM 44.7420 -64.5900 236° Southwest 412 474 32,000  Level FlightAware ADS-B
Tue 11:46:27 AM 44.6990 -64.6810 236° Southwest 413 475 32,000  Level FlightAware ADS-B
Tue 11:47:07 AM 44.6570 -64.7720 237° Southwest 413 475 32,000  Level FlightAware ADS-B
Tue 11:47:52 AM 44.6110 -64.8700 237° Southwest 414 476 32,000  Level FlightAware ADS-B
Tue 11:48:32 AM 44.5680 -64.9590 236° Southwest 414 476 32,000  Level FlightAware ADS-B
Tue 11:49:17 AM 44.5200 -65.0610 237° Southwest 415 478 32,000  Level FlightAware ADS-B
Tue 11:49:57 AM 44.4770 -65.1520 237° Southwest 416 479 32,000  Level FlightAware ADS-B
Tue 11:50:42 AM 44.4300 -65.2490 236° Southwest 416 479 32,000  Level FlightAware ADS-B
Tue 11:51:22 AM 44.3860 -65.3400 236° Southwest 417 480 32,000  Level FlightAware ADS-B
Tue 11:52:07 AM 44.3390 -65.4380 236° Southwest 417 480 32,000  Level FlightAware ADS-B
Tue 11:52:47 AM 44.2960 -65.5280 236° Southwest 417 480 32,000  Level FlightAware ADS-B
Tue 11:53:27 AM 44.2500 -65.6210 235° Southwest 417 480 32,000  Level FlightAware ADS-B
Tue 11:54:12 AM 44.2020 -65.7200 236° Southwest 416 479 32,000  Level FlightAware ADS-B
Tue 11:54:42 AM 44.1710 -65.7850 236° Southwest 416 479 32,000  Level FlightAware ADS-B
Tue 11:55:37 AM 44.1130 -65.9030 236° Southwest 413 475 32,000  Level FlightAware ADS-B
Tue 11:56:17 AM 44.0690 -65.9930 236° Southwest 413 475 32,000  Level FlightAware ADS-B
Tue 11:56:57 AM 44.0260 -66.0790 235° Southwest 413 475 32,000  Level FlightAware ADS-B
Tue 11:57:37 AM 43.9820 -66.1690 236° Southwest 412 474 32,000  Level FlightAware ADS-B
Tue 11:58:22 AM 43.9320 -66.2700 236° Southwest 412 474 32,000  Level FlightAware ADS-B
Tue 11:59:07 AM 43.8830 -66.3680 235° Southwest 413 475 32,000  Level FlightAware ADS-B
Tue 11:59:47 AM 43.8390 -66.4570 236° Southwest 413 475 32,000  Level FlightAware ADS-B
Tue 12:00:27 PM 43.7960 -66.5430 235° Southwest 413 475 32,000  Level FlightAware ADS-B
Tue 12:01:12 PM 43.7450 -66.6430 235° Southwest 413 475 32,000  Level FlightAware ADS-B
Tue 12:01:52 PM 43.7010 -66.7310 235° Southwest 418 481 32,000  Level FlightAware ADS-B
Tue 12:02:32 PM 43.6570 -66.8190 235° Southwest 419 482 32,000  Level FlightAware ADS-B
Tue 12:06:17 PM 43.4300 -67.3210 238° Southwest 423 487 32,000  Level FlightAware ADS-B
Tue 12:07:02 PM 43.3880 -67.4200 240° Southwest 424 488 32,000  Level FlightAware ADS-B
Tue 12:07:42 PM 43.3460 -67.5180 240° Southwest 424 488 32,000  Level FlightAware ADS-B
Tue 12:08:22 PM 43.3060 -67.6130 240° Southwest 421 484 32,000  Level FlightAware ADS-B
Tue 12:09:07 PM 43.2610 -67.7170 239° Southwest 420 483 32,000  Level FlightAware ADS-B
Tue 12:09:52 PM 43.2190 -67.8140 239° Southwest 423 487 32,000  Level FlightAware ADS-B
Tue 12:10:32 PM 43.1750 -67.9170 240° Southwest 421 484 32,000  Level FlightAware ADS-B
Tue 12:11:12 PM 43.1400 -67.9960 239° Southwest 420 483 32,000  Level FlightAware ADS-B
Tue 12:11:52 PM 43.1060 -68.0740 239° Southwest 420 483 32,000  Level FlightAware ADS-B
Tue 12:12:47 PM 43.0470 -68.2140 240° Southwest 416 479 32,000  Level FlightAware ADS-B
Tue 12:13:32 PM 42.9950 -68.3310 239° Southwest 415 478 32,000  Level FlightAware ADS-B
Tue 12:14:12 PM 42.9580 -68.4150 239° Southwest 416 479 32,000  Level FlightAware ADS-B
Tue 12:14:57 PM 42.9110 -68.5220 239° Southwest 415 478 32,000  Level FlightAware ADS-B
Tue 12:15:27 PM 42.8850 -68.5820 239° Southwest 416 479 32,000  Level FlightAware ADS-B
Tue 12:16:22 PM 42.8260 -68.7150 239° Southwest 416 479 32,000  Level FlightAware ADS-B
Tue 12:17:02 PM 42.7890 -68.7980 239° Southwest 412 474 32,000  Level FlightAware ADS-B
Tue 12:17:37 PM 42.7550 -68.8730 238° Southwest 411 473 32,000  Level FlightAware ADS-B
Tue 12:18:42 PM 42.6880 -69.0230 239° Southwest 410 472 32,000  Level FlightAware ADS-B
Tue 12:19:22 PM 42.6500 -69.1080 239° Southwest 410 472 32,000  Level FlightAware ADS-B
Tue 12:20:07 PM 42.6070 -69.2050 239° Southwest 407 468 32,000  Level FlightAware ADS-B
Tue 12:20:47 PM 42.5660 -69.2940 238° Southwest 407 468 32,000  Level FlightAware ADS-B
Tue 12:21:27 PM 42.5240 -69.3880 239° Southwest 408 470 32,000  Level FlightAware ADS-B
Tue 12:22:12 PM 42.4790 -69.4860 238° Southwest 408 470 32,000  Level FlightAware ADS-B
Tue 12:22:52 PM 42.4430 -69.5660 239° Southwest 408 470 32,000  Level FlightAware ADS-B
Tue 12:23:37 PM 42.3940 -69.6720 238° Southwest 409 471 32,000  Level FlightAware ADS-B
Tue 12:24:17 PM 42.3560 -69.7560 239° Southwest 409 471 32,000  Level FlightAware ADS-B
Tue 12:24:57 PM 42.3130 -69.8480 238° Southwest 410 472 32,000  Level FlightAware ADS-B
Tue 12:25:42 PM 42.2680 -69.9460 238° Southwest 411 473 32,000  Level FlightAware ADS-B
Tue 12:26:22 PM 42.2270 -70.0350 238° Southwest 412 474 32,000  Level FlightAware ADS-B
Tue 12:27:02 PM 42.1890 -70.1170 238° Southwest 412 474 32,000  Level FlightAware ADS-B
Tue 12:27:47 PM 42.1420 -70.2170 238° Southwest 406 467 32,000  Level FlightAware ADS-B
Tue 12:28:27 PM 42.1040 -70.3000 238° Southwest 407 468 32,000  Level FlightAware ADS-B
Tue 12:28:57 PM 42.0860 -70.3820 254° West 423 487 32,000  Level FlightAware ADS-B
Tue 12:29:37 PM 42.0930 -70.4890 275° West 437 503 32,000 -300 Level FlightAware ADS-B
Tue 12:30:17 PM 42.1030 -70.5930 277° West 434 499 31,600 -565 Descending FlightAware ADS-B
Tue 12:31:02 PM 42.1150 -70.7130 278° West 420 483 31,200 -1,034 Descending FlightAware ADS-B
Tue 12:32:42 PM 42.0880 -70.9420 261° West 367 422 29,100 -1,329 Descending FlightAware ADS-B
Tue 12:33:22 PM 42.0410 -71.0040 224° Southwest 363 418 28,100 -1,500 Descending FlightAware ADS-B
Tue 12:34:02 PM 41.9920 -71.0630 222° Southwest 363 418 27,100 -1,482 Descending FlightAware ADS-B
Tue 12:34:47 PM 41.9360 -71.1310 222° Southwest 361 415 26,000 -1,412 Descending FlightAware ADS-B
Tue 12:35:27 PM 41.8870 -71.1920 223° Southwest 359 413 25,100 -1,341 Descending FlightAware ADS-B
Tue 12:36:12 PM 41.8300 -71.2610 222° Southwest 359 413 24,100 -776 Descending FlightAware ADS-B
Tue 12:36:52 PM 41.7800 -71.3220 222° Southwest 383 441 24,000 -75 Descending FlightAware ADS-B
Tue 12:37:32 PM 41.7260 -71.3880 222° Southwest 386 444 24,000  Level FlightAware ADS-B
Tue 12:38:17 PM 41.6690 -71.4570 222° Southwest 387 445 24,000  Level FlightAware ADS-B
Tue 12:38:57 PM 41.6140 -71.5240 222° Southwest 387 445 24,000  Level FlightAware ADS-B
Tue 12:39:42 PM 41.5550 -71.5940 222° Southwest 387 445 24,000  Level FlightAware ADS-B
Tue 12:40:17 PM 41.5070 -71.6520 222° Southwest 388 447 24,000  Level FlightAware ADS-B
Tue 12:41:02 PM 41.4490 -71.7220 222° Southwest 390 449 24,000  Level FlightAware ADS-B
Tue 12:41:47 PM 41.3890 -71.7930 222° Southwest 381 438 24,000  Level FlightAware ADS-B
Tue 12:42:42 PM 41.3170 -71.8800 222° Southwest 378 435 24,000  Level FlightAware ADS-B
Tue 12:43:17 PM 41.3060 -71.8920 219° Southwest 378 435 24,000  Level FlightAware ADS-B
Tue 12:44:02 PM 41.2510 -71.9550 221° Southwest 378 435 24,000 -1,341 Level FlightAware ADS-B
Tue 12:44:42 PM 41.1580 -72.0560 219° Southwest 375 432 22,100 -1,341 Descending FlightAware ADS-B
Tue 12:45:27 PM 41.1020 -72.1160 219° Southwest 375 432 22,100  Level FlightAware ADS-B
Tue 12:46:07 PM 41.0560 -72.1650 219° Southwest 375 432 22,100 -3,035 Level FlightAware ADS-B
Tue 12:46:52 PM 41.0190 -72.2900 249° West 345 397 17,800 -4,588 Descending FlightAware ADS-B
Tue 12:47:32 PM 40.9870 -72.3630 240° Southwest 362 417 15,600 -2,541 Descending FlightAware ADS-B
Tue 12:48:17 PM 40.9460 -72.4560 240° Southwest 355 409 14,200 -1,200 Descending FlightAware ADS-B
Tue 12:50:52 PM 40.8260 -72.7230 239° Southwest 301 346 11,600 -800 Descending FlightAware ADS-B
Tue 12:51:32 PM 40.7980 -72.7850 239° Southwest 298 343 11,600 -706 Level FlightAware ADS-B
Tue 12:52:17 PM 40.7770 -72.8640 251° West 297 342 10,600 -1,341 Descending FlightAware ADS-B
Tue 12:52:57 PM 40.7630 -72.9340 255° West 296 341 9,700 -1,286 Descending FlightAware ADS-B
Tue 12:53:27 PM 40.7530 -72.9860 256° West 296 341 9,100 -1,200 Descending FlightAware ADS-B
Tue 12:53:52 PM 40.7440 -73.0300 255° West 296 341 8,600 -1,200 Descending FlightAware ADS-B
Tue 12:54:22 PM 40.7350 -73.0810 257° West 293 337 8,000 -1,200 Descending FlightAware ADS-B
Tue 12:54:47 PM 40.7220 -73.1250 249° West 284 327 7,500 -1,200 Descending FlightAware ADS-B
Tue 12:55:02 PM 40.7090 -73.1450 229° Southwest 287 330 7,200 -1,333 Descending FlightAware ADS-B
Tue 12:55:32 PM 40.6800 -73.1870 228° Southwest 286 329 6,500 -1,418 Descending FlightAware ADS-B
Tue 12:55:57 PM 40.6580 -73.2190 228° Southwest 285 328 5,900 -1,309 Descending FlightAware ADS-B
Tue 12:56:27 PM 40.6310 -73.2570 227° Southwest 282 325 5,300 -1,200 Descending FlightAware ADS-B
Tue 12:56:57 PM 40.6060 -73.2920 227° Southwest 281 323 4,700 -1,200 Descending FlightAware ADS-B
Tue 12:57:22 PM 40.5840 -73.3260 230° Southwest 280 322 4,200 -1,309 Descending FlightAware ADS-B
Tue 12:57:52 PM 40.5580 -73.3650 229° Southwest 279 321 3,500 -1,309 Descending FlightAware ADS-B
Tue 12:58:17 PM 40.5390 -73.3970 232° Southwest 280 322 3,000 -1,200 Descending FlightAware ADS-B
Tue 12:58:32 PM 40.5280 -73.4200 238° Southwest 281 323 2,700 -400 Descending FlightAware ADS-B
Tue 12:59:02 PM 40.5070 -73.4670 240° Southwest 283 326 2,700  Level FlightAware ADS-B
Tue 12:59:27 PM 40.4910 -73.5020 239° Southwest 283 326 2,700  Level FlightAware ADS-B
Tue 12:59:57 PM 40.4710 -73.5470 240° Southwest 284 327 2,700  Level FlightAware ADS-B
Tue 01:00:27 PM 40.4500 -73.5910 238° Southwest 282 325 2,700  Level FlightAware ADS-B
Tue 01:00:52 PM 40.4350 -73.6260 241° Southwest 283 326 2,700 -109 Level FlightAware ADS-B
Tue 01:01:22 PM 40.4140 -73.6690 237° Southwest 280 322 2,600 -764 Descending FlightAware ADS-B
Tue 01:01:47 PM 40.3920 -73.7050 231° Southwest 282 325 2,000 -982 Descending FlightAware ADS-B
Tue 01:02:17 PM 40.3670 -73.7440 230° Southwest 275 316 1,700 -300 Descending FlightAware ADS-B
Tue 01:02:47 PM 40.3440 -73.7780 228° Southwest 245 282 1,700  Level FlightAware ADS-B
Tue 01:03:12 PM 40.3360 -73.8080 251° West 221 254 1,700  Level FlightAware ADS-B
Tue 01:03:32 PM 40.3340 -73.8330 264° West 207 238 1,700  Level FlightAware ADS-B
Tue 01:03:57 PM 40.3330 -73.8630 268° West 207 238 1,700  Level FlightAware ADS-B
Tue 01:04:22 PM 40.3410 -73.8970 287° West 200 230 1,700  Level FlightAware ADS-B
Tue 01:04:52 PM 40.3500 -73.9250 293° West 184 212 1,700  Level FlightAware ADS-B
Tue 01:05:17 PM 40.3600 -73.9480 300° West 182 209 1,700  Level FlightAware ADS-B
Tue 01:05:32 PM 40.3720 -73.9600 323° Northwest 165 190 1,700  Level FlightAware ADS-B
Tue 01:05:37 PM 40.3750 -73.9600 360° North 161 185 1,700  Level FlightAware ADS-B
Tue 01:06:02 PM 40.3910 -73.9530 18° North 152 175 1,700  Level FlightAware ADS-B
Tue 01:06:27 PM 40.4060 -73.9420 29° Northeast 140 161 1,700  Level FlightAware ADS-B
Tue 01:06:57 PM 40.4230 -73.9290 30° Northeast 142 163 1,700  Level FlightAware ADS-B
Tue 01:07:17 PM 40.4340 -73.9200 32° Northeast 141 162 1,700  Level FlightAware ADS-B
Tue 01:08:07 PM 40.4620 -73.8980 31° Northeast 140 161 1,700  Level FlightAware ADS-B
Tue 01:08:37 PM 40.4790 -73.8840 32° Northeast 140 161 1,700  Level FlightAware ADS-B
Tue 01:09:02 PM 40.4930 -73.8740 29° Northeast 140 161 1,700  Level FlightAware ADS-B
Tue 01:09:17 PM 40.5020 -73.8670 31° Northeast 141 162 1,700  Level FlightAware ADS-B
Tue 01:09:42 PM 40.5150 -73.8560 33° Northeast 141 162 1,700  Level FlightAware ADS-B
Tue 01:10:12 PM 40.5330 -73.8420 31° Northeast 142 163 1,700 -200 Level FlightAware ADS-B
Tue 01:10:42 PM 40.5500 -73.8290 30° Northeast 138 159 1,500 -545 Descending FlightAware ADS-B
Tue 01:11:07 PM 40.5620 -73.8200 30° Northeast 126 145 1,200 -764 Descending FlightAware ADS-B
Tue 01:11:37 PM 40.5780 -73.8080 30° Northeast 126 145 800 -700 Descending FlightAware ADS-B
Tue 01:12:07 PM 40.5930 -73.7950 33° Northeast 125 144 500 -655 Descending FlightAware ADS-B
Tue 01:12:32 PM 40.6060 -73.7860 28° Northeast 126 145 200 -720 Descending FlightAware ADS-B
Tue 01:12:47 PM 40.6130 -73.7800 33° Northeast 124 143 -800 Descending FlightAware ADS-B
Tue 01:13:17 PM 40.6280 -73.7690 29° Northeast 128 147  Level FlightAware ADS-B

Login

Don't have an account? Register now (free) for customized features, flight alerts, and more!